Hub


Voltar

 INFORMAÇÕES METEOROLÓGICAS

METAR FOR SBCP


ADDS - METARS form results

(0311 UTC 22 March 2019)
Data provider http://aviationweather.gov/metar/data/
 
Forecast for: SBCP (CAMPOS/BARTOLOME, BR)
Text: TAF SBCP 212100Z 2200/2212 21010KT 5000 RA BKN010TN23/2210Z TX25/2212Z
Forecast period: 0000 to 0100 UTC 22 March 2019
Forecast type: FROM: standard forecast or significant change
Winds: from the SSW (210 degrees) at 12 MPH (10 knots; 5.1 m/s)
Visibility: 3 miles (5 km)
Ceiling: unknown
Clouds: missing
Weather: RA  (moderate rain)
Text: BECMG 2201/2203 9999 NSW SCT020 RMK PHQ
Forecast period: 0100 to 1200 UTC 22 March 2019
Forecast type: BECOMING: Conditions expected to become as follows by 0300 UTC 22 March 2019
Winds: from the SSW (210 degrees) at 12 MPH (10 knots; 5.1 m/s)
Visibility: 6 or more miles 10+ km)
Ceiling: at least 12,000 feet AGL
Clouds: scattered clouds at 2000 feet AGL
Weather: NSW  (no significant weather)


 MAPA DO AEROPORTO


 INFORMAÇÕES DA PISTA

Pista 7 Tamanho da pista 5066 ft Largura da pista 148 ft
Elevação da pista 0 ft Ranhura da pista 0 ft Proa da pista 0
Pista 25 Tamanho da pista 5066 ft Largura da pista 148 ft
Elevação da pista 0 ft Ranhura da pista 0 ft Proa da pista 0

 FREQUÊNCIAS DO AEROPORTO

Tipo AFIS Nome CAMPOS RDO Frequência 125.7 MHZ

 AUXÍLIOS DE NAVEGAÇÃO PRÓXIMOS AO AEROPORTO

Tipo NDB Nome Campos Frequência 225 KHZ